createdAt,value
2019-01-25T00:04:44.622Z,-4.25
2019-01-25T00:07:28.326Z,-4.24
2019-01-25T00:10:21.440Z,-4.26
2019-01-25T00:15:41.630Z,-4.25
2019-01-25T00:18:17.912Z,-4.23
2019-01-25T00:24:28.381Z,-4.18
2019-01-25T00:26:59.437Z,-4.25
2019-01-25T00:29:28.494Z,-4.08
2019-01-25T00:31:57.551Z,-3.97
2019-01-25T00:34:26.622Z,-3.94
2019-01-25T00:36:56.636Z,-4.14
2019-01-25T00:39:29.745Z,-4.13
2019-01-25T00:42:03.645Z,-4.13
2019-01-25T00:44:32.717Z,-4.06
2019-01-25T00:47:01.834Z,-4.23
2019-01-25T00:49:30.856Z,-4.21
2019-01-25T00:52:09.819Z,-4.26
2019-01-25T00:54:38.897Z,-4.25
2019-01-25T00:57:07.955Z,-4.21
2019-01-25T00:59:37.023Z,-4.23
2019-01-25T01:02:06.087Z,-4.29
2019-01-25T01:04:35.194Z,-4.30
2019-01-25T01:07:06.296Z,-4.34
2019-01-25T01:09:35.739Z,-4.32
2019-01-25T01:15:03.798Z,-4.20
2019-01-25T01:17:32.872Z,-4.18
2019-01-25T01:20:01.979Z,-4.09
2019-01-25T01:22:31.045Z,-4.15
2019-01-25T01:25:00.218Z,-4.11
2019-01-25T01:27:29.244Z,-4.19
2019-01-25T01:32:45.985Z,-4.24
2019-01-25T01:35:28.171Z,-4.29
2019-01-25T01:37:57.244Z,-4.23
2019-01-25T01:40:28.211Z,-4.19
2019-01-25T01:42:57.287Z,-4.14
2019-01-25T01:45:41.382Z,-4.14
2019-01-25T01:48:10.454Z,-4.28
2019-01-25T01:50:39.505Z,-4.16
2019-01-25T01:53:09.494Z,-4.15
2019-01-25T01:55:41.915Z,-4.17
2019-01-25T01:58:25.690Z,-4.18
2019-01-25T02:00:54.801Z,-4.23
2019-01-25T02:03:27.418Z,-4.10
2019-01-25T02:05:56.485Z,-4.12
2019-01-25T02:08:25.937Z,-3.99
2019-01-25T02:10:57.925Z,-4.07
2019-01-25T02:13:51.724Z,-4.08
2019-01-25T02:18:57.251Z,-4.02
2019-01-25T02:21:28.240Z,-4.22
2019-01-25T02:23:57.363Z,-4.26
2019-01-25T02:26:28.419Z,-4.24
2019-01-25T02:28:58.403Z,-4.29
2019-01-25T02:34:06.819Z,-4.24
2019-01-25T02:36:35.887Z,-4.05
2019-01-25T02:39:04.952Z,-4.16
2019-01-25T02:41:34.005Z,-4.12
2019-01-25T02:44:03.065Z,-4.25
2019-01-25T02:46:35.487Z,-4.31
2019-01-25T02:49:04.544Z,-4.35
2019-01-25T02:51:46.303Z,-4.41
2019-01-25T02:54:28.799Z,-4.47
2019-01-25T02:56:58.081Z,-4.49
2019-01-25T03:02:06.838Z,-4.54
2019-01-25T03:04:39.519Z,-4.51
2019-01-25T03:07:08.581Z,-4.44
2019-01-25T03:09:40.896Z,-4.58
2019-01-25T03:14:19.688Z,-4.56
2019-01-25T03:16:48.784Z,-4.60
2019-01-25T03:19:18.775Z,-4.65
2019-01-25T03:21:47.831Z,-4.61
2019-01-25T03:24:20.671Z,-4.54
2019-01-25T03:26:49.725Z,-4.57
2019-01-25T03:29:24.211Z,-4.65
2019-01-25T03:31:53.331Z,-4.61
2019-01-25T03:37:09.434Z,-4.62
2019-01-25T03:39:39.391Z,-4.66
2019-01-25T03:42:08.516Z,-4.63
2019-01-25T03:44:42.908Z,-4.62
2019-01-25T03:47:11.979Z,-4.67
2019-01-25T03:49:42.997Z,-4.60
2019-01-25T03:52:15.823Z,-4.57
2019-01-25T03:54:44.876Z,-4.48
2019-01-25T03:59:50.395Z,-4.58
2019-01-25T04:02:21.492Z,-4.59
2019-01-25T04:04:50.559Z,-4.64
2019-01-25T04:07:19.616Z,-4.64
2019-01-25T04:09:49.044Z,-4.62
2019-01-25T04:12:19.114Z,-4.56
2019-01-25T04:14:48.211Z,-4.63
2019-01-25T04:17:17.301Z,-4.66
2019-01-25T04:19:46.364Z,-4.69
2019-01-25T04:22:18.497Z,-4.60
2019-01-25T04:24:47.556Z,-4.60
2019-01-25T04:27:20.994Z,-4.66
2019-01-25T04:29:51.684Z,-4.65
2019-01-25T04:32:39.096Z,-4.60
2019-01-25T04:35:08.315Z,-4.53
2019-01-25T04:37:37.391Z,-4.62
2019-01-25T04:40:08.154Z,-4.54
2019-01-25T04:42:37.220Z,-4.51
2019-01-25T04:45:06.268Z,-4.54
2019-01-25T04:47:35.348Z,-4.60
2019-01-25T04:50:05.378Z,-4.46
2019-01-25T04:52:34.805Z,-4.54
2019-01-25T04:55:18.275Z,-4.48
2019-01-25T04:57:49.325Z,-4.41
2019-01-25T05:00:18.346Z,-4.39
2019-01-25T05:02:52.413Z,-4.40
2019-01-25T05:05:21.493Z,-4.44
2019-01-25T05:07:50.580Z,-4.55
2019-01-25T05:10:19.654Z,-4.60
2019-01-25T05:12:56.616Z,-4.59
2019-01-25T05:15:53.008Z,-4.60
2019-01-25T05:18:22.912Z,-4.59
2019-01-25T05:20:55.181Z,-4.55
2019-01-25T05:23:24.246Z,-4.50
2019-01-25T05:28:32.288Z,-4.58
2019-01-25T05:31:01.364Z,-4.60
2019-01-25T05:33:30.411Z,-4.47
2019-01-25T05:36:06.849Z,-4.57
2019-01-25T05:41:13.059Z,-4.60
2019-01-25T05:43:52.890Z,-4.65
2019-01-25T05:46:21.959Z,-4.65
2019-01-25T05:48:52.947Z,-4.65
2019-01-25T05:51:22.037Z,-4.67
2019-01-25T05:53:55.987Z,-4.59
2019-01-25T05:57:02.816Z,-4.55
2019-01-25T06:02:10.538Z,-4.52
2019-01-25T06:07:18.250Z,-4.60
2019-01-25T06:12:26.917Z,-4.61
2019-01-25T06:14:56.113Z,-4.48
2019-01-25T06:17:26.180Z,-4.53
2019-01-25T06:19:57.245Z,-4.58
2019-01-25T06:22:27.239Z,-4.58
2019-01-25T06:24:57.975Z,-4.54
2019-01-25T06:27:27.041Z,-4.64
2019-01-25T06:32:35.261Z,-4.67
2019-01-25T06:35:04.344Z,-4.65
2019-01-25T06:37:34.388Z,-4.69
2019-01-25T06:40:18.993Z,-4.74
2019-01-25T06:42:53.521Z,-4.67
2019-01-25T06:47:59.820Z,-4.65
2019-01-25T06:50:28.886Z,-4.49
2019-01-25T06:52:57.954Z,-4.62
2019-01-25T06:55:27.007Z,-4.57
2019-01-25T07:00:34.613Z,-4.65
2019-01-25T07:03:18.151Z,-4.66
2019-01-25T07:06:12.385Z,-4.64
2019-01-25T07:08:41.432Z,-4.52
2019-01-25T07:14:05.103Z,-4.51
2019-01-25T07:19:50.859Z,-4.45
2019-01-25T07:22:27.235Z,-4.40
2019-01-25T07:24:57.302Z,-4.37
2019-01-25T07:30:05.165Z,-4.17
2019-01-25T07:35:15.158Z,-4.28
2019-01-25T07:37:45.174Z,-4.20
2019-01-25T07:40:16.218Z,-4.15
2019-01-25T07:42:49.853Z,-4.16
2019-01-25T07:45:20.883Z,-4.16
2019-01-25T07:47:49.969Z,-4.16
2019-01-25T07:50:19.108Z,-4.17
2019-01-25T07:52:48.191Z,-4.18
2019-01-25T07:55:28.230Z,-4.19
2019-01-25T07:58:01.971Z,-4.02
2019-01-25T08:00:31.003Z,-4.06
2019-01-25T08:03:00.072Z,-4.06
2019-01-25T08:05:29.166Z,-4.03
2019-01-25T08:07:58.218Z,-4.05
2019-01-25T08:10:27.293Z,-3.98
2019-01-25T08:12:56.409Z,-3.93
2019-01-25T08:15:25.459Z,-4.10
2019-01-25T08:17:56.486Z,-4.20
2019-01-25T08:20:25.534Z,-4.18
2019-01-25T08:23:13.729Z,-4.01
2019-01-25T08:25:45.162Z,-4.03
2019-01-25T08:28:16.220Z,-4.13
2019-01-25T08:30:55.274Z,-4.21
2019-01-25T08:33:24.414Z,-4.08
2019-01-25T08:35:58.979Z,-4.06
2019-01-25T08:38:33.436Z,-4.00
2019-01-25T08:43:55.948Z,-3.71
2019-01-25T08:46:30.545Z,-3.84
2019-01-25T08:51:48.077Z,-3.71
2019-01-25T08:54:22.629Z,-3.61
2019-01-25T08:56:57.212Z,-3.20
2019-01-25T08:59:31.729Z,-3.19
2019-01-25T09:02:20.544Z,-2.93
2019-01-25T09:05:09.640Z,-3.02
2019-01-25T09:07:54.488Z,-3.17
2019-01-25T09:10:28.954Z,-3.11
2019-01-25T09:13:03.532Z,-3.16
2019-01-25T09:15:38.201Z,-3.12
2019-01-25T09:18:26.863Z,-3.05
2019-01-25T09:21:02.056Z,-3.23
2019-01-25T09:23:37.127Z,-3.47
2019-01-25T09:28:47.467Z,-3.47
2019-01-25T09:31:17.431Z,-3.38
2019-01-25T09:33:47.028Z,-3.44
2019-01-25T09:36:16.126Z,-3.47
2019-01-25T09:38:45.376Z,-3.49
2019-01-25T09:43:50.987Z,-3.41
2019-01-25T09:46:21.520Z,-3.25
2019-01-25T09:48:50.616Z,-3.21
2019-01-25T09:51:20.908Z,-3.11
2019-01-25T09:53:50.393Z,-3.17
2019-01-25T09:56:21.399Z,-3.13
2019-01-25T09:59:00.981Z,-3.25
2019-01-25T10:01:37.238Z,-3.35
2019-01-25T10:06:49.376Z,-2.90
2019-01-25T10:09:20.983Z,-3.05
2019-01-25T10:11:50.186Z,-3.15
2019-01-25T10:14:21.794Z,-3.34
2019-01-25T10:16:51.617Z,-3.20
2019-01-25T10:19:36.795Z,-3.29
2019-01-25T10:24:44.264Z,-3.28
2019-01-25T10:27:14.227Z,-3.31
2019-01-25T10:29:43.571Z,-3.35
2019-01-25T10:34:48.359Z,-2.88
2019-01-25T10:39:57.182Z,-2.62
2019-01-25T10:42:29.322Z,-2.65
2019-01-25T10:44:58.683Z,-2.64
2019-01-25T10:47:28.201Z,-2.34
2019-01-25T10:49:57.291Z,-2.46
2019-01-25T10:52:27.667Z,-2.24
2019-01-25T10:54:56.852Z,-2.27
2019-01-25T10:57:30.843Z,-2.25
2019-01-25T10:59:59.902Z,-2.06
2019-01-25T11:02:36.866Z,-2.14
2019-01-25T11:05:11.379Z,-1.86
2019-01-25T11:07:40.499Z,-1.40
2019-01-25T11:10:25.660Z,-1.34
2019-01-25T11:13:00.782Z,-1.87
2019-01-25T11:15:24.536Z,-2.14
2019-01-25T11:23:15.411Z,-1.98
2019-01-25T11:25:47.479Z,-1.76
2019-01-25T11:28:16.756Z,-2.56
2019-01-25T11:30:53.626Z,-2.13
2019-01-25T11:33:22.735Z,-1.61
2019-01-25T11:35:51.797Z,-0.93
2019-01-25T11:38:21.193Z,-1.25
2019-01-25T11:43:26.880Z,-2.03
2019-01-25T11:45:56.663Z,-1.82
2019-01-25T11:48:25.717Z,-2.05
2019-01-25T11:50:55.197Z,-2.05
2019-01-25T11:53:24.620Z,-1.61
2019-01-25T11:55:53.667Z,-1.86
2019-01-25T11:58:22.732Z,-1.97
2019-01-25T12:00:53.985Z,-0.75
2019-01-25T12:03:23.521Z,-0.02
2019-01-25T12:05:54.727Z,0.80
2019-01-25T12:08:24.122Z,0.43
2019-01-25T12:10:56.902Z,-0.05
2019-01-25T12:13:31.694Z,-0.24
2019-01-25T12:16:19.826Z,-0.46
2019-01-25T12:18:49.351Z,-0.01
2019-01-25T12:21:20.960Z,1.30
2019-01-25T12:23:50.012Z,0.60
2019-01-25T12:26:20.203Z,0.80
2019-01-25T12:28:54.284Z,0.12
2019-01-25T12:33:59.595Z,-0.40
2019-01-25T12:36:29.264Z,-0.08
2019-01-25T12:39:04.049Z,-0.80
2019-01-25T12:44:19.477Z,-0.46
2019-01-25T12:46:57.086Z,-1.10
2019-01-25T12:49:32.041Z,-1.19
2019-01-25T12:52:13.091Z,-1.26
2019-01-25T12:54:43.993Z,-1.38
2019-01-25T12:57:14.209Z,-1.77
2019-01-25T12:59:52.500Z,-1.20
2019-01-25T13:02:26.159Z,-1.24
2019-01-25T13:04:56.512Z,-1.37
2019-01-25T13:07:26.572Z,-1.34
2019-01-25T13:10:07.160Z,-1.53
2019-01-25T13:12:47.495Z,-1.40
2019-01-25T13:18:12.086Z,-0.39
2019-01-25T13:20:43.571Z,-0.90
2019-01-25T13:23:12.694Z,-0.82
2019-01-25T13:25:49.114Z,-1.00
2019-01-25T13:28:21.405Z,-0.94
2019-01-25T13:30:51.030Z,-1.38
2019-01-25T13:33:20.689Z,-1.27
2019-01-25T13:35:59.139Z,-1.76
2019-01-25T13:38:28.399Z,-1.65
2019-01-25T13:41:00.394Z,-0.82
2019-01-25T13:43:29.482Z,-1.09
2019-01-25T13:46:00.457Z,-0.89
2019-01-25T13:48:29.815Z,-1.36
2019-01-25T13:51:00.859Z,-1.64
2019-01-25T13:53:30.511Z,-1.81
2019-01-25T13:56:00.871Z,-1.82
2019-01-25T13:58:30.040Z,-1.86
2019-01-25T14:01:04.113Z,-1.85
2019-01-25T14:03:33.458Z,-1.78
2019-01-25T14:06:03.113Z,-1.88
2019-01-25T14:08:41.326Z,-2.03
2019-01-25T14:11:20.995Z,-2.08
2019-01-25T14:14:15.184Z,-2.04
2019-01-25T14:16:45.424Z,-2.18
2019-01-25T14:19:14.492Z,-2.32
2019-01-25T14:21:44.244Z,-2.44
2019-01-25T14:24:16.614Z,-2.35
2019-01-25T14:26:42.978Z,-2.24
2019-01-25T14:29:12.347Z,-2.14
2019-01-25T14:31:42.422Z,-2.20
2019-01-25T14:34:11.480Z,-2.27
2019-01-25T14:36:40.974Z,-2.23
2019-01-25T14:39:10.565Z,-2.16
2019-01-25T14:41:40.663Z,-2.23
2019-01-25T14:44:11.021Z,-2.33
2019-01-25T14:46:40.554Z,-2.21
2019-01-25T14:49:10.578Z,-2.23
2019-01-25T14:51:39.805Z,-2.13
2019-01-25T14:54:08.860Z,-2.05
2019-01-25T14:56:38.015Z,-1.87
2019-01-25T14:59:07.668Z,-1.60
2019-01-25T15:01:36.728Z,-1.32
2019-01-25T15:04:07.113Z,-1.51
2019-01-25T15:06:36.152Z,-1.75
2019-01-25T15:09:05.685Z,-2.09
2019-01-25T15:11:35.309Z,-2.07
2019-01-25T15:14:04.387Z,-2.22
2019-01-25T15:16:33.924Z,-2.34
2019-01-25T15:19:03.798Z,-2.33
2019-01-25T15:21:33.835Z,-2.39
2019-01-25T15:24:13.584Z,-2.46
2019-01-25T15:26:42.630Z,-2.36
2019-01-25T15:29:12.604Z,-2.44
2019-01-25T15:31:42.208Z,-2.35
2019-01-25T15:34:11.267Z,-2.35
2019-01-25T15:36:40.543Z,-2.36
2019-01-25T15:39:11.572Z,-2.42
2019-01-25T15:41:40.648Z,-2.43
2019-01-25T15:44:10.870Z,-2.44
2019-01-25T15:46:39.956Z,-2.52
2019-01-25T15:49:09.539Z,-2.49
2019-01-25T15:51:39.046Z,-2.53
2019-01-25T15:54:10.046Z,-2.49
2019-01-25T15:56:39.478Z,-2.53
2019-01-25T16:01:45.787Z,-2.72
2019-01-25T16:04:15.866Z,-2.68
2019-01-25T16:06:55.557Z,-2.79
2019-01-25T16:09:39.029Z,-2.85
2019-01-25T16:14:57.404Z,-2.77
2019-01-25T16:17:38.335Z,-2.85
2019-01-25T16:20:14.928Z,-2.95
2019-01-25T16:22:43.990Z,-3.05
2019-01-25T16:25:14.737Z,-3.04
2019-01-25T16:27:44.082Z,-3.18
2019-01-25T16:30:18.063Z,-3.22
2019-01-25T16:32:47.144Z,-3.11
2019-01-25T16:35:16.211Z,-3.08
2019-01-25T16:37:45.656Z,-3.01
2019-01-25T16:40:15.830Z,-3.04
2019-01-25T16:42:45.086Z,-3.10
2019-01-25T16:47:57.944Z,-3.21
2019-01-25T16:50:29.193Z,-3.12
2019-01-25T16:52:58.320Z,-3.18
2019-01-25T16:55:28.289Z,-3.29
2019-01-25T16:58:25.931Z,-3.26
2019-01-25T17:01:07.471Z,-3.29
2019-01-25T17:03:48.969Z,-3.27
2019-01-25T17:06:27.887Z,-3.29
2019-01-25T17:11:45.892Z,-3.37
2019-01-25T17:14:33.178Z,-3.40
2019-01-25T17:17:20.890Z,-3.34
2019-01-25T17:19:50.045Z,-3.29
2019-01-25T17:22:19.691Z,-3.22
2019-01-25T17:24:49.680Z,-3.29
2019-01-25T17:27:24.186Z,-3.37
2019-01-25T17:29:53.445Z,-3.27
2019-01-25T17:33:18.938Z,-3.31
2019-01-25T17:35:50.682Z,-3.31
2019-01-25T17:38:19.774Z,-3.29
2019-01-25T17:40:50.046Z,-3.29
2019-01-25T17:46:02.745Z,-3.32
2019-01-25T17:48:50.584Z,-3.29
2019-01-25T17:51:21.621Z,-3.34
2019-01-25T17:53:52.460Z,-3.41
2019-01-25T17:56:25.002Z,-3.47
2019-01-25T17:58:54.165Z,-3.45
2019-01-25T18:01:29.587Z,-3.42
2019-01-25T18:03:58.635Z,-3.45
2019-01-25T18:06:27.744Z,-3.55
2019-01-25T18:08:57.317Z,-3.71
2019-01-25T18:14:07.673Z,-3.59
2019-01-25T18:16:41.724Z,-3.66
2019-01-25T18:21:49.871Z,-3.71
2019-01-25T18:26:57.117Z,-3.62
2019-01-25T18:29:30.910Z,-3.55
2019-01-25T18:31:59.975Z,-3.49
2019-01-25T18:34:29.811Z,-3.57
2019-01-25T18:36:58.903Z,-3.57
2019-01-25T18:39:33.952Z,-3.72
2019-01-25T18:42:02.979Z,-3.70
2019-01-25T18:44:32.982Z,-3.75
2019-01-25T18:47:02.471Z,-3.78
2019-01-25T18:49:33.522Z,-3.72
2019-01-25T18:52:03.090Z,-3.73
2019-01-25T18:57:07.539Z,-3.87
2019-01-25T18:59:36.977Z,-4.09
2019-01-25T19:02:06.324Z,-4.16
2019-01-25T19:07:12.320Z,-4.38
2019-01-25T19:09:54.409Z,-4.38
2019-01-25T19:12:40.111Z,-4.40
2019-01-25T19:15:24.632Z,-4.49
2019-01-25T19:17:54.127Z,-4.56
2019-01-25T19:20:40.423Z,-4.59
2019-01-25T19:23:10.567Z,-4.60
2019-01-25T19:25:40.065Z,-4.66
2019-01-25T19:28:09.750Z,-4.69
2019-01-25T19:30:44.770Z,-4.76
2019-01-25T19:35:51.100Z,-4.75
2019-01-25T19:38:24.712Z,-4.49
2019-01-25T19:40:53.944Z,-4.39
2019-01-25T19:43:40.539Z,-4.39
2019-01-25T19:51:29.991Z,-4.58
2019-01-25T19:53:59.083Z,-4.72
2019-01-25T19:56:30.061Z,-4.70
2019-01-25T19:59:00.127Z,-4.69
2019-01-25T20:02:42.685Z,-4.68
2019-01-25T20:05:15.582Z,-4.65
2019-01-25T20:07:45.580Z,-4.66
2019-01-25T20:10:15.116Z,-4.69
2019-01-25T20:12:44.186Z,-4.73
2019-01-25T20:15:19.342Z,-4.72
2019-01-25T20:17:44.086Z,-4.69
2019-01-25T20:20:14.107Z,-4.70
2019-01-25T20:22:45.144Z,-4.71
2019-01-25T20:25:15.363Z,-4.67
2019-01-25T20:30:30.790Z,-4.75
2019-01-25T20:33:07.093Z,-4.70
2019-01-25T20:35:40.669Z,-4.67
2019-01-25T20:38:12.695Z,-4.63
2019-01-25T20:40:42.009Z,-4.66
2019-01-25T20:43:11.147Z,-4.54
2019-01-25T20:45:40.574Z,-4.54
2019-01-25T20:50:52.047Z,-4.44
2019-01-25T20:53:21.407Z,-4.33
2019-01-25T20:55:58.404Z,-4.37
2019-01-25T20:58:30.930Z,-4.35
2019-01-25T21:01:00.112Z,-4.33
2019-01-25T21:03:30.381Z,-4.24
2019-01-25T21:05:59.496Z,-4.18
2019-01-25T21:08:28.550Z,-4.15
2019-01-25T21:10:58.100Z,-4.15
2019-01-25T21:13:36.751Z,-4.10
2019-01-25T21:16:38.203Z,-4.00
2019-01-25T21:19:25.411Z,-3.93
2019-01-25T21:24:46.221Z,-3.81
2019-01-25T21:30:22.291Z,-3.79
2019-01-25T21:35:42.981Z,-3.74
2019-01-25T21:38:21.450Z,-3.65
2019-01-25T21:41:02.580Z,-3.69
2019-01-25T21:46:18.649Z,-3.62
2019-01-25T21:49:17.649Z,-3.57
2019-01-25T21:52:16.037Z,-3.52
2019-01-25T21:54:53.026Z,-3.54
2019-01-25T22:00:08.228Z,-3.40
2019-01-25T22:02:43.953Z,-3.47
2019-01-25T22:05:32.169Z,-3.46
2019-01-25T22:08:22.019Z,-3.48
2019-01-25T22:13:52.923Z,-3.54
2019-01-25T22:16:32.302Z,-3.65
2019-01-25T22:19:11.206Z,-3.63
2019-01-25T22:21:44.647Z,-3.66
2019-01-25T22:27:02.026Z,-3.70
2019-01-25T22:29:37.801Z,-3.61
2019-01-25T22:32:11.014Z,-3.61
2019-01-25T22:34:46.586Z,-3.57
2019-01-25T22:37:32.193Z,-3.56
2019-01-25T22:40:05.823Z,-3.53
2019-01-25T22:42:38.869Z,-3.50
2019-01-25T22:45:14.403Z,-3.43
2019-01-25T22:47:48.092Z,-3.41
2019-01-25T22:50:25.626Z,-3.47
2019-01-25T22:53:00.337Z,-3.47
2019-01-25T22:55:39.175Z,-3.40
2019-01-25T22:58:13.043Z,-3.36
2019-01-25T23:03:55.457Z,-3.20
2019-01-25T23:06:43.157Z,-3.18
2019-01-25T23:09:19.292Z,-3.20
2019-01-25T23:11:52.809Z,-3.19
2019-01-25T23:14:27.439Z,-3.07
2019-01-25T23:17:01.091Z,-3.16
2019-01-25T23:22:12.045Z,-3.16
2019-01-25T23:24:44.075Z,-3.18
2019-01-25T23:27:17.842Z,-3.16
2019-01-25T23:29:51.716Z,-2.98
2019-01-25T23:35:03.877Z,-2.99
2019-01-25T23:37:44.507Z,-3.03
2019-01-25T23:40:17.905Z,-2.96
2019-01-25T23:42:52.645Z,-3.00
2019-01-25T23:45:25.410Z,-3.01
2019-01-25T23:48:04.573Z,-3.05
2019-01-25T23:50:40.226Z,-2.96
2019-01-25T23:53:13.099Z,-2.93
2019-01-25T23:55:47.193Z,-2.97
2019-01-25T23:58:21.818Z,-3.06
